createdAt,value
2017-03-27T00:00:29.488Z,1045.24
2017-03-27T00:01:29.475Z,1045.22
2017-03-27T00:02:29.464Z,1045.28
2017-03-27T00:03:29.451Z,1045.31
2017-03-27T00:04:29.437Z,1045.32
2017-03-27T00:05:29.425Z,1045.33
2017-03-27T00:06:29.412Z,1045.34
2017-03-27T00:07:29.399Z,1045.37
2017-03-27T00:08:29.388Z,1045.37
2017-03-27T00:09:29.374Z,1045.34
2017-03-27T00:10:29.362Z,1045.34
2017-03-27T00:11:29.349Z,1045.36
2017-03-27T00:12:29.336Z,1045.39
2017-03-27T00:13:29.324Z,1045.41
2017-03-27T00:14:29.310Z,1045.42
2017-03-27T00:15:29.298Z,1045.44
2017-03-27T00:16:29.285Z,1045.45
2017-03-27T00:17:29.272Z,1045.44
2017-03-27T00:18:29.259Z,1045.45
2017-03-27T00:19:29.247Z,1045.44
2017-03-27T00:20:29.234Z,1045.45
2017-03-27T00:21:29.220Z,1045.43
2017-03-27T00:22:29.208Z,1045.46
2017-03-27T00:23:29.196Z,1045.45
2017-03-27T00:24:29.183Z,1045.49
2017-03-27T00:25:29.170Z,1045.48
2017-03-27T00:26:29.157Z,1045.47
2017-03-27T00:27:29.144Z,1045.46
2017-03-27T00:28:29.132Z,1045.46
2017-03-27T00:29:29.119Z,1045.39
2017-03-27T00:30:29.106Z,1045.36
2017-03-27T00:31:29.093Z,1045.33
2017-03-27T00:32:29.080Z,1045.35
2017-03-27T00:33:29.067Z,1045.3
2017-03-27T00:34:29.060Z,1045.31
2017-03-27T00:35:29.042Z,1045.32
2017-03-27T00:36:29.028Z,1045.26
2017-03-27T00:37:29.015Z,1045.25
2017-03-27T00:38:29.003Z,1045.25
2017-03-27T00:39:28.991Z,1045.24
2017-03-27T00:40:28.977Z,1045.21
2017-03-27T00:41:28.964Z,1045.18
2017-03-27T00:42:28.953Z,1045.19
2017-03-27T00:43:28.938Z,1045.19
2017-03-27T00:44:28.925Z,1045.17
2017-03-27T00:45:28.913Z,1045.19
2017-03-27T00:46:28.902Z,1045.2
2017-03-27T00:47:28.886Z,1045.17
2017-03-27T00:48:28.876Z,1045.18
2017-03-27T00:49:28.861Z,1045.21
2017-03-27T00:50:28.849Z,1045.22
2017-03-27T00:51:28.834Z,1045.19
2017-03-27T00:52:28.821Z,1045.24
2017-03-27T00:53:28.810Z,1045.25
2017-03-27T00:54:28.796Z,1045.24
2017-03-27T00:55:28.783Z,1045.23
2017-03-27T00:56:28.771Z,1045.26
2017-03-27T00:57:28.758Z,1045.24
2017-03-27T00:58:28.744Z,1045.25
2017-03-27T00:59:28.732Z,1045.28
2017-03-27T01:00:28.719Z,1045.27
2017-03-27T01:01:28.707Z,1045.28
2017-03-27T01:02:28.692Z,1045.32
2017-03-27T01:03:28.680Z,1045.35
2017-03-27T01:04:28.667Z,1045.34
2017-03-27T01:05:28.652Z,1045.36
2017-03-27T01:06:28.639Z,1045.35
2017-03-27T01:07:28.627Z,1045.38
2017-03-27T01:08:28.615Z,1045.42
2017-03-27T01:09:28.601Z,1045.36
2017-03-27T01:10:28.588Z,1045.4
2017-03-27T01:11:28.575Z,1045.39
2017-03-27T01:12:28.765Z,1045.37
2017-03-27T01:13:28.548Z,1045.36
2017-03-27T01:14:28.536Z,1045.31
2017-03-27T01:15:28.523Z,1045.32
2017-03-27T01:16:28.509Z,1045.3
2017-03-27T01:17:28.495Z,1045.33
2017-03-27T01:18:28.483Z,1045.34
2017-03-27T01:19:28.471Z,1045.31
2017-03-27T01:20:28.456Z,1045.35
2017-03-27T01:21:28.444Z,1045.36
2017-03-27T01:22:28.431Z,1045.37
2017-03-27T01:23:28.418Z,1045.38
2017-03-27T01:24:28.405Z,1045.4
2017-03-27T01:25:28.393Z,1045.42
2017-03-27T01:26:28.380Z,1045.45
2017-03-27T01:27:28.366Z,1045.47
2017-03-27T01:28:28.353Z,1045.46
2017-03-27T01:29:28.340Z,1045.44
2017-03-27T01:30:28.349Z,1045.43
2017-03-27T01:31:28.313Z,1045.43
2017-03-27T01:32:28.303Z,1045.41
2017-03-27T01:33:28.288Z,1045.42
2017-03-27T01:34:28.273Z,1045.44
2017-03-27T01:35:28.260Z,1045.48
2017-03-27T01:36:28.248Z,1045.48
2017-03-27T01:37:28.238Z,1045.48
2017-03-27T01:38:28.220Z,1045.48
2017-03-27T01:39:28.208Z,1045.51
2017-03-27T01:40:28.196Z,1045.53
2017-03-27T01:41:28.181Z,1045.54
2017-03-27T01:42:28.168Z,1045.53
2017-03-27T01:43:28.156Z,1045.51
2017-03-27T01:44:28.143Z,1045.49
2017-03-27T01:45:28.128Z,1045.52
2017-03-27T01:46:28.115Z,1045.55
2017-03-27T01:47:28.104Z,1045.51
2017-03-27T01:48:28.090Z,1045.52
2017-03-27T01:49:28.076Z,1045.52
2017-03-27T01:50:28.063Z,1045.48
2017-03-27T01:51:28.050Z,1045.48
2017-03-27T01:52:28.038Z,1045.51
2017-03-27T01:53:28.023Z,1045.48
2017-03-27T01:54:28.009Z,1045.52
2017-03-27T01:55:27.996Z,1045.48
2017-03-27T01:56:27.982Z,1045.47
2017-03-27T01:57:27.970Z,1045.47
2017-03-27T01:58:27.957Z,1045.46
2017-03-27T01:59:27.943Z,1045.5
2017-03-27T02:00:27.929Z,1045.54
2017-03-27T02:01:27.916Z,1045.54
2017-03-27T02:02:27.903Z,1045.57
2017-03-27T02:03:27.889Z,1045.53
2017-03-27T02:04:27.877Z,1045.5
2017-03-27T02:05:27.863Z,1045.53
2017-03-27T02:06:27.851Z,1045.51
2017-03-27T02:07:27.838Z,1045.55
2017-03-27T02:08:27.824Z,1045.55
2017-03-27T02:09:27.811Z,1045.52
2017-03-27T02:10:27.797Z,1045.49
2017-03-27T02:11:27.783Z,1045.49
2017-03-27T02:12:27.770Z,1045.5
2017-03-27T02:13:27.756Z,1045.51
2017-03-27T02:14:27.744Z,1045.49
2017-03-27T02:15:27.729Z,1045.53
2017-03-27T02:16:27.717Z,1045.53
2017-03-27T02:17:27.704Z,1045.5
2017-03-27T02:18:27.690Z,1045.51
2017-03-27T02:19:27.677Z,1045.54
2017-03-27T02:20:27.663Z,1045.57
2017-03-27T02:21:27.650Z,1045.59
2017-03-27T02:22:27.637Z,1045.56
2017-03-27T02:23:27.624Z,1045.57
2017-03-27T02:24:27.611Z,1045.57
2017-03-27T02:25:27.597Z,1045.52
2017-03-27T02:26:27.583Z,1045.52
2017-03-27T02:27:27.570Z,1045.48
2017-03-27T02:28:27.557Z,1045.44
2017-03-27T02:29:27.543Z,1045.47
2017-03-27T02:30:27.530Z,1045.44
2017-03-27T02:31:27.517Z,1045.47
2017-03-27T02:32:27.504Z,1045.45
2017-03-27T02:33:27.490Z,1045.46
2017-03-27T02:34:27.477Z,1045.44
2017-03-27T02:35:27.464Z,1045.46
2017-03-27T02:36:27.450Z,1045.48
2017-03-27T02:37:27.436Z,1045.43
2017-03-27T02:38:27.424Z,1045.42
2017-03-27T02:39:27.411Z,1045.46
2017-03-27T02:40:27.396Z,1045.5
2017-03-27T02:41:27.384Z,1045.46
2017-03-27T02:42:27.370Z,1045.47
2017-03-27T02:43:27.357Z,1045.47
2017-03-27T02:44:27.342Z,1045.46
2017-03-27T02:45:27.329Z,1045.41
2017-03-27T02:46:27.316Z,1045.42
2017-03-27T02:47:27.303Z,1045.44
2017-03-27T02:48:27.289Z,1045.45
2017-03-27T02:49:27.275Z,1045.42
2017-03-27T02:50:27.262Z,1045.43
2017-03-27T02:51:27.247Z,1045.43
2017-03-27T02:52:27.235Z,1045.42
2017-03-27T02:53:27.222Z,1045.45
2017-03-27T02:54:27.209Z,1045.47
2017-03-27T02:55:27.194Z,1045.47
2017-03-27T02:56:27.181Z,1045.46
2017-03-27T02:57:27.168Z,1045.52
2017-03-27T02:58:27.154Z,1045.46
2017-03-27T02:59:27.142Z,1045.47
2017-03-27T03:00:27.128Z,1045.44
2017-03-27T03:01:27.117Z,1045.42
2017-03-27T03:02:27.100Z,1045.42
2017-03-27T03:03:27.089Z,1045.44
2017-03-27T03:04:27.073Z,1045.45
2017-03-27T03:05:27.061Z,1045.43
2017-03-27T03:06:27.046Z,1045.47
2017-03-27T03:07:27.064Z,1045.47
2017-03-27T03:08:27.021Z,1045.49
2017-03-27T03:09:27.006Z,1045.45
2017-03-27T03:10:26.992Z,1045.45
2017-03-27T03:11:26.978Z,1045.43
2017-03-27T03:12:26.965Z,1045.44
2017-03-27T03:13:26.950Z,1045.43
2017-03-27T03:14:26.937Z,1045.45
2017-03-27T03:15:26.925Z,1045.44
2017-03-27T03:16:26.911Z,1045.47
2017-03-27T03:17:26.901Z,1045.47
2017-03-27T03:18:26.883Z,1045.5
2017-03-27T03:19:26.870Z,1045.49
2017-03-27T03:20:26.856Z,1045.55
2017-03-27T03:21:26.850Z,1045.49
2017-03-27T03:22:26.829Z,1045.49
2017-03-27T03:23:26.815Z,1045.47
2017-03-27T03:24:26.801Z,1045.5
2017-03-27T03:25:26.788Z,1045.53
2017-03-27T03:26:26.775Z,1045.5
2017-03-27T03:27:26.765Z,1045.51
2017-03-27T03:28:26.747Z,1045.51
2017-03-27T03:29:26.734Z,1045.51
2017-03-27T03:30:26.720Z,1045.51
2017-03-27T03:31:26.706Z,1045.5
2017-03-27T03:32:26.694Z,1045.51
2017-03-27T03:33:26.679Z,1045.48
2017-03-27T03:34:26.666Z,1045.53
2017-03-27T03:35:26.651Z,1045.52
2017-03-27T03:36:26.637Z,1045.42
2017-03-27T03:37:26.630Z,1045.42
2017-03-27T03:38:26.611Z,1045.43
2017-03-27T03:39:26.597Z,1045.42
2017-03-27T03:40:26.582Z,1045.39
2017-03-27T03:41:26.570Z,1045.41
2017-03-27T03:42:26.555Z,1045.42
2017-03-27T03:43:26.541Z,1045.41
2017-03-27T03:44:26.527Z,1045.4
2017-03-27T03:45:26.514Z,1045.43
2017-03-27T03:46:26.500Z,1045.42
2017-03-27T03:47:26.486Z,1045.42
2017-03-27T03:48:26.473Z,1045.42
2017-03-27T03:49:26.460Z,1045.41
2017-03-27T03:50:26.445Z,1045.39
2017-03-27T03:51:26.431Z,1045.43
2017-03-27T03:52:26.418Z,1045.38
2017-03-27T03:53:26.403Z,1045.43
2017-03-27T03:54:26.390Z,1045.47
2017-03-27T03:55:26.377Z,1045.48
2017-03-27T03:56:26.363Z,1045.51
2017-03-27T03:57:26.348Z,1045.53
2017-03-27T03:58:26.335Z,1045.56
2017-03-27T03:59:26.323Z,1045.51
2017-03-27T04:00:26.309Z,1045.52
2017-03-27T04:01:26.293Z,1045.48
2017-03-27T04:02:26.280Z,1045.49
2017-03-27T04:03:26.267Z,1045.48
2017-03-27T04:04:26.252Z,1045.51
2017-03-27T04:05:26.273Z,1045.48
2017-03-27T04:06:26.225Z,1045.57
2017-03-27T04:07:26.212Z,1045.54
2017-03-27T04:08:26.197Z,1045.57
2017-03-27T04:09:26.184Z,1045.56
2017-03-27T04:10:26.173Z,1045.51
2017-03-27T04:11:26.156Z,1045.57
2017-03-27T04:12:26.146Z,1045.57
2017-03-27T04:13:26.129Z,1045.63
2017-03-27T04:14:26.116Z,1045.63
2017-03-27T04:15:26.100Z,1045.65
2017-03-27T04:16:26.088Z,1045.67
2017-03-27T04:17:26.074Z,1045.64
2017-03-27T04:18:26.060Z,1045.66
2017-03-27T04:19:26.046Z,1045.66
2017-03-27T04:20:26.033Z,1045.69
2017-03-27T04:21:26.018Z,1045.71
2017-03-27T04:22:26.005Z,1045.72
2017-03-27T04:23:25.992Z,1045.7
2017-03-27T04:24:25.977Z,1045.69
2017-03-27T04:25:25.963Z,1045.68
2017-03-27T04:26:25.948Z,1045.67
2017-03-27T04:27:25.935Z,1045.66
2017-03-27T04:28:25.922Z,1045.64
2017-03-27T04:29:25.908Z,1045.62
2017-03-27T04:30:25.894Z,1045.63
2017-03-27T04:31:25.880Z,1045.61
2017-03-27T04:32:25.866Z,1045.65
2017-03-27T04:33:25.853Z,1045.62
2017-03-27T04:34:25.839Z,1045.69
2017-03-27T04:35:25.826Z,1045.67
2017-03-27T04:36:25.812Z,1045.67
2017-03-27T04:37:25.797Z,1045.72
2017-03-27T04:38:25.784Z,1045.74
2017-03-27T04:39:25.770Z,1045.71
2017-03-27T04:40:25.756Z,1045.71
2017-03-27T04:41:25.742Z,1045.71
2017-03-27T04:42:25.728Z,1045.69
2017-03-27T04:43:25.715Z,1045.67
2017-03-27T04:44:25.701Z,1045.65
2017-03-27T04:45:25.687Z,1045.66
2017-03-27T04:46:25.673Z,1045.64
2017-03-27T04:47:25.660Z,1045.63
2017-03-27T04:48:25.645Z,1045.62
2017-03-27T04:49:25.632Z,1045.63
2017-03-27T04:50:25.619Z,1045.58
2017-03-27T04:51:25.605Z,1045.56
2017-03-27T04:52:25.589Z,1045.57
2017-03-27T04:53:25.576Z,1045.52
2017-03-27T04:54:25.563Z,1045.59
2017-03-27T04:55:25.548Z,1045.56
2017-03-27T04:56:25.535Z,1045.56
2017-03-27T04:57:25.520Z,1045.55
2017-03-27T04:58:25.508Z,1045.52
2017-03-27T04:59:25.493Z,1045.53
2017-03-27T05:00:25.479Z,1045.48
2017-03-27T05:01:25.466Z,1045.42
2017-03-27T05:02:25.453Z,1045.43
2017-03-27T05:03:25.438Z,1045.32
2017-03-27T05:04:25.425Z,1045.3
2017-03-27T05:05:25.412Z,1045.22
2017-03-27T05:06:25.400Z,1045.19
2017-03-27T05:07:25.384Z,1045.15
2017-03-27T05:08:25.371Z,1045.13
2017-03-27T05:09:25.358Z,1045.11
2017-03-27T05:10:25.343Z,1045.05
2017-03-27T05:11:25.330Z,1045.04
2017-03-27T05:12:25.316Z,1045.02
2017-03-27T05:13:25.303Z,1044.98
2017-03-27T05:14:25.288Z,1044.94
2017-03-27T05:15:25.276Z,1044.85
2017-03-27T05:16:25.262Z,1044.76
2017-03-27T05:17:25.248Z,1044.7
2017-03-27T05:18:25.235Z,1044.62
2017-03-27T05:19:25.222Z,1044.54
2017-03-27T05:20:25.209Z,1044.33
2017-03-27T05:21:25.194Z,1044.1
2017-03-27T05:22:25.182Z,1043.97
2017-03-27T05:23:25.171Z,1043.77
2017-03-27T05:24:25.156Z,1043.49
2017-03-27T05:25:25.142Z,1043.22
2017-03-27T05:26:25.130Z,1043.03
2017-03-27T05:27:25.118Z,1042.79
2017-03-27T05:28:25.105Z,1042.53
2017-03-27T05:29:25.093Z,1042.33
2017-03-27T05:30:25.081Z,1042.19
2017-03-27T05:31:25.068Z,1042.01
2017-03-27T05:32:25.057Z,1041.84
2017-03-27T05:33:25.045Z,1041.59
2017-03-27T05:34:25.035Z,1041.45
2017-03-27T05:35:25.026Z,1041.22
2017-03-27T05:36:25.012Z,1041.06
2017-03-27T05:37:25.002Z,1040.88
2017-03-27T05:38:24.991Z,1040.74
2017-03-27T05:39:24.980Z,1040.66
2017-03-27T05:40:24.971Z,1040.51
2017-03-27T05:41:24.961Z,1040.37
2017-03-27T05:42:24.951Z,1040.18
2017-03-27T05:43:24.945Z,1040.04
2017-03-27T05:44:24.933Z,1039.91
2017-03-27T05:45:24.923Z,1039.74
2017-03-27T05:46:24.914Z,1039.57
2017-03-27T05:47:24.906Z,1039.4
2017-03-27T05:48:24.898Z,1039.27
2017-03-27T05:49:24.889Z,1039.15
2017-03-27T05:50:24.880Z,1038.99
2017-03-27T05:51:24.878Z,1038.85
2017-03-27T05:52:24.866Z,1038.67
2017-03-27T05:53:24.859Z,1038.55
2017-03-27T05:54:24.851Z,1038.41
2017-03-27T05:55:24.844Z,1038.34
2017-03-27T05:56:24.838Z,1038.16
2017-03-27T05:57:24.832Z,1038.09
2017-03-27T05:58:24.826Z,1037.96
2017-03-27T05:59:24.823Z,1037.84
2017-03-27T06:00:24.813Z,1037.76
2017-03-27T06:01:24.806Z,1037.68
2017-03-27T06:02:24.802Z,1037.49
2017-03-27T06:03:24.800Z,1037.35
2017-03-27T06:04:24.792Z,1037.17
2017-03-27T06:05:24.786Z,1037.09
2017-03-27T06:06:24.782Z,1036.99
2017-03-27T06:07:24.778Z,1036.84
2017-03-27T06:08:24.774Z,1036.8
2017-03-27T06:09:24.769Z,1036.71
2017-03-27T06:10:24.766Z,1036.61
2017-03-27T06:11:24.762Z,1036.51
2017-03-27T06:12:24.757Z,1036.47
2017-03-27T06:13:24.754Z,1036.39
2017-03-27T06:14:24.751Z,1036.27
2017-03-27T06:15:24.748Z,1036.18
2017-03-27T06:16:24.745Z,1036.08
2017-03-27T06:17:24.742Z,1036.02
2017-03-27T06:18:24.739Z,1035.87
2017-03-27T06:19:24.735Z,1035.7
2017-03-27T06:20:24.733Z,1035.6
2017-03-27T06:21:24.732Z,1035.45
2017-03-27T06:22:24.729Z,1035.36
2017-03-27T06:23:24.726Z,1035.25
2017-03-27T06:24:24.725Z,1035.12
2017-03-27T06:25:24.723Z,1035.07
2017-03-27T06:26:24.737Z,1034.93
2017-03-27T06:27:24.719Z,1034.85
2017-03-27T06:28:24.719Z,1034.73
2017-03-27T06:29:24.718Z,1034.56
2017-03-27T06:30:24.716Z,1034.43
2017-03-27T06:31:24.715Z,1034.24
2017-03-27T06:32:24.715Z,1034.17
2017-03-27T06:33:24.715Z,1034.09
2017-03-27T06:34:24.714Z,1034.03
2017-03-27T06:35:24.714Z,1033.95
2017-03-27T06:36:24.715Z,1033.92
2017-03-27T06:37:24.715Z,1033.86
2017-03-27T06:38:24.714Z,1033.78
2017-03-27T06:39:24.716Z,1033.72
2017-03-27T06:40:24.716Z,1033.66
2017-03-27T06:41:24.717Z,1033.59
2017-03-27T06:42:24.718Z,1033.53
2017-03-27T06:43:24.719Z,1033.55
2017-03-27T06:44:24.720Z,1033.47
2017-03-27T06:45:24.724Z,1033.42
2017-03-27T06:46:24.723Z,1033.31
2017-03-27T06:47:24.726Z,1033.17
2017-03-27T06:48:24.728Z,1033.1
2017-03-27T06:49:24.730Z,1033.04
2017-03-27T06:50:24.731Z,1033
2017-03-27T06:51:24.734Z,1032.99
2017-03-27T06:52:24.736Z,1033
2017-03-27T06:53:24.738Z,1033.04
2017-03-27T06:54:24.742Z,1033.09
2017-03-27T06:55:24.745Z,1033.09
2017-03-27T06:56:24.748Z,1033.1
2017-03-27T06:57:24.751Z,1033.06
2017-03-27T06:58:24.754Z,1032.92
2017-03-27T06:59:24.759Z,1032.77
2017-03-27T07:00:24.762Z,1032.69
2017-03-27T07:01:24.765Z,1032.58
2017-03-27T07:02:24.768Z,1032.52
2017-03-27T07:03:24.773Z,1032.51
2017-03-27T07:04:24.777Z,1032.44
2017-03-27T07:05:24.783Z,1032.41
2017-03-27T07:06:24.786Z,1032.45
2017-03-27T07:07:24.791Z,1032.47
2017-03-27T07:08:24.796Z,1032.5
2017-03-27T07:09:24.801Z,1032.49
2017-03-27T07:10:24.806Z,1032.44
2017-03-27T07:11:24.810Z,1032.42
2017-03-27T07:12:24.817Z,1032.43
2017-03-27T07:13:24.822Z,1032.47
2017-03-27T07:14:24.826Z,1032.41
2017-03-27T07:15:24.833Z,1032.33
2017-03-27T07:16:24.842Z,1032.33
2017-03-27T07:17:24.847Z,1032.25
2017-03-27T07:18:24.850Z,1032.22
2017-03-27T07:19:24.856Z,1032.16
2017-03-27T07:20:24.863Z,1032.11
2017-03-27T07:21:24.870Z,1032.05
2017-03-27T07:22:24.874Z,1031.99
2017-03-27T07:23:24.882Z,1031.94
2017-03-27T07:24:24.890Z,1031.97
2017-03-27T07:25:24.896Z,1031.92
2017-03-27T07:26:24.904Z,1031.9
2017-03-27T07:27:24.914Z,1031.9
2017-03-27T07:28:24.924Z,1031.82
2017-03-27T07:29:24.926Z,1031.79
2017-03-27T07:30:24.934Z,1031.8
2017-03-27T07:31:24.942Z,1031.71
2017-03-27T07:32:24.950Z,1031.68
2017-03-27T07:33:24.958Z,1031.67
2017-03-27T07:34:24.968Z,1031.59
2017-03-27T07:35:24.975Z,1031.55
2017-03-27T07:36:24.983Z,1031.55
2017-03-27T07:37:24.992Z,1031.66
2017-03-27T07:38:25.002Z,1031.72
2017-03-27T07:39:25.011Z,1031.71
2017-03-27T07:40:25.018Z,1031.54
2017-03-27T07:41:25.028Z,1031.47
2017-03-27T07:42:25.037Z,1031.41
2017-03-27T07:43:25.047Z,1031.36
2017-03-27T07:44:25.056Z,1031.37
2017-03-27T07:45:25.065Z,1031.38
2017-03-27T07:46:25.075Z,1031.38
2017-03-27T07:47:25.082Z,1031.48
2017-03-27T07:48:25.093Z,1031.7
2017-03-27T07:49:25.102Z,1031.93
2017-03-27T07:50:25.122Z,1032.17
2017-03-27T07:51:25.120Z,1032.32
2017-03-27T07:52:25.128Z,1032.38
2017-03-27T07:53:25.138Z,1032.49
2017-03-27T07:54:25.146Z,1032.58
2017-03-27T07:55:25.155Z,1032.68
2017-03-27T07:56:25.163Z,1032.67
2017-03-27T07:57:25.173Z,1032.64
2017-03-27T07:58:25.183Z,1032.62
2017-03-27T07:59:25.190Z,1032.71
2017-03-27T08:00:25.199Z,1032.76
2017-03-27T08:01:25.206Z,1032.83
2017-03-27T08:02:25.212Z,1032.9
2017-03-27T08:03:25.222Z,1032.94
2017-03-27T08:04:25.230Z,1032.99
2017-03-27T08:05:25.236Z,1032.98
2017-03-27T08:06:25.245Z,1033.09
2017-03-27T08:07:25.253Z,1033.15
2017-03-27T08:08:25.261Z,1033.11
2017-03-27T08:09:25.268Z,1033.13
2017-03-27T08:10:25.275Z,1033.17
2017-03-27T08:11:25.284Z,1033.09
2017-03-27T08:12:25.291Z,1033.12
2017-03-27T08:13:25.300Z,1033.29
2017-03-27T08:14:25.306Z,1033.65
2017-03-27T08:15:25.312Z,1034.35
2017-03-27T08:16:25.319Z,1034.99
2017-03-27T08:17:25.325Z,1035.59
2017-03-27T08:18:25.333Z,1036
2017-03-27T08:19:25.339Z,1036.43
2017-03-27T08:20:25.343Z,1036.7
2017-03-27T08:21:25.349Z,1037.07
2017-03-27T08:22:25.354Z,1037.38
2017-03-27T08:23:25.359Z,1037.7
2017-03-27T08:24:25.362Z,1037.99
2017-03-27T08:25:25.367Z,1038.33
2017-03-27T08:26:25.369Z,1038.54
2017-03-27T08:27:25.371Z,1038.74
2017-03-27T08:28:25.374Z,1038.88
2017-03-27T08:29:25.377Z,1039.07
2017-03-27T08:30:25.378Z,1039.21
2017-03-27T08:31:25.379Z,1039.4
2017-03-27T08:32:25.379Z,1039.52
2017-03-27T08:33:25.379Z,1039.61
2017-03-27T08:34:25.380Z,1039.72
2017-03-27T08:35:25.378Z,1039.74
2017-03-27T08:36:25.378Z,1039.84
2017-03-27T08:37:25.377Z,1039.92
2017-03-27T08:38:25.375Z,1040
2017-03-27T08:39:25.374Z,1040.09
2017-03-27T08:40:25.372Z,1040.2
2017-03-27T08:41:25.621Z,1040.29
2017-03-27T08:42:25.368Z,1040.33
2017-03-27T08:43:25.367Z,1040.36
2017-03-27T08:44:25.370Z,1040.4
2017-03-27T08:45:25.363Z,1040.45
2017-03-27T08:46:25.358Z,1040.5
2017-03-27T08:47:25.357Z,1040.59
2017-03-27T08:48:25.354Z,1040.62
2017-03-27T08:49:25.351Z,1040.67
2017-03-27T08:50:25.353Z,1040.69
2017-03-27T08:51:25.349Z,1040.75
2017-03-27T08:52:25.342Z,1040.77
2017-03-27T08:53:25.337Z,1040.8
2017-03-27T08:54:25.335Z,1040.75
2017-03-27T08:55:25.332Z,1040.79
2017-03-27T08:56:25.329Z,1040.82
2017-03-27T08:57:25.325Z,1040.82
2017-03-27T08:58:25.321Z,1040.83
2017-03-27T08:59:25.318Z,1040.82
2017-03-27T09:00:25.313Z,1040.83
2017-03-27T09:01:25.308Z,1040.86
2017-03-27T09:02:25.305Z,1040.82
2017-03-27T09:03:25.315Z,1040.89
2017-03-27T09:04:25.298Z,1040.89
2017-03-27T09:05:25.313Z,1040.89
2017-03-27T09:06:25.290Z,1040.91
2017-03-27T09:07:25.285Z,1040.87
2017-03-27T09:08:25.281Z,1040.89
2017-03-27T09:09:25.277Z,1040.87
2017-03-27T09:10:25.273Z,1040.89
2017-03-27T09:11:25.268Z,1040.87
2017-03-27T09:12:25.264Z,1040.9
2017-03-27T09:13:25.260Z,1040.89
2017-03-27T09:14:25.256Z,1040.87
2017-03-27T09:15:25.251Z,1040.88
2017-03-27T09:16:25.246Z,1040.9
2017-03-27T09:17:25.242Z,1040.97
2017-03-27T09:18:25.239Z,1040.94
2017-03-27T09:19:25.234Z,1040.95
2017-03-27T09:20:25.230Z,1040.93
2017-03-27T09:21:25.226Z,1040.94
2017-03-27T09:22:25.223Z,1040.94
2017-03-27T09:23:25.217Z,1040.97
2017-03-27T09:24:25.212Z,1040.96
2017-03-27T09:25:25.208Z,1040.94
2017-03-27T09:26:25.202Z,1040.97
2017-03-27T09:27:25.198Z,1040.93
2017-03-27T09:28:25.194Z,1040.94
2017-03-27T09:29:25.189Z,1040.93
2017-03-27T09:30:25.184Z,1040.92
2017-03-27T09:31:25.180Z,1040.87
2017-03-27T09:32:25.177Z,1040.92
2017-03-27T09:33:25.171Z,1040.91
2017-03-27T09:34:25.167Z,1040.93
2017-03-27T09:35:25.163Z,1040.9
2017-03-27T09:36:25.158Z,1040.9
2017-03-27T09:37:25.154Z,1040.86
2017-03-27T09:38:25.149Z,1040.83
2017-03-27T09:39:25.144Z,1040.8
2017-03-27T09:40:25.139Z,1040.78
2017-03-27T09:41:25.134Z,1040.78
2017-03-27T09:42:25.132Z,1040.8
2017-03-27T09:43:25.127Z,1040.83
2017-03-27T09:44:25.121Z,1040.77
2017-03-27T09:45:25.116Z,1040.74
2017-03-27T09:46:25.112Z,1040.75
2017-03-27T09:47:25.108Z,1040.72
2017-03-27T09:48:25.104Z,1040.68
2017-03-27T09:49:25.098Z,1040.72
2017-03-27T09:50:25.094Z,1040.67
2017-03-27T09:51:25.089Z,1040.64
2017-03-27T09:52:25.084Z,1040.67
2017-03-27T09:53:25.080Z,1040.62
2017-03-27T09:54:25.076Z,1040.62
2017-03-27T09:55:25.070Z,1040.63
2017-03-27T09:56:25.067Z,1040.58
2017-03-27T09:57:25.063Z,1040.54
2017-03-27T09:58:25.059Z,1040.6
2017-03-27T09:59:25.053Z,1040.55
2017-03-27T10:00:25.048Z,1040.56
2017-03-27T10:01:25.045Z,1040.54
2017-03-27T10:02:25.039Z,1040.5
2017-03-27T10:03:25.046Z,1040.52
2017-03-27T10:04:25.031Z,1040.53
2017-03-27T10:05:25.027Z,1040.51
2017-03-27T10:06:25.023Z,1040.56
2017-03-27T10:07:25.020Z,1040.52
2017-03-27T10:08:25.013Z,1040.52
2017-03-27T10:09:25.009Z,1040.48
2017-03-27T10:10:25.004Z,1040.56
2017-03-27T10:11:24.999Z,1040.5
2017-03-27T10:12:24.995Z,1040.48
2017-03-27T10:13:24.991Z,1040.43
2017-03-27T10:14:24.988Z,1040.44
2017-03-27T10:15:24.982Z,1040.47
2017-03-27T10:16:25.005Z,1040.48
2017-03-27T10:17:24.973Z,1040.51
2017-03-27T10:18:24.967Z,1040.5
2017-03-27T10:19:24.965Z,1040.48
2017-03-27T10:20:24.962Z,1040.52
2017-03-27T10:21:24.955Z,1040.46
2017-03-27T10:22:24.950Z,1040.41
2017-03-27T10:23:24.946Z,1040.36
2017-03-27T10:24:24.949Z,1040.34
2017-03-27T10:25:24.937Z,1040.3
2017-03-27T10:26:24.949Z,1040.33
2017-03-27T10:27:24.929Z,1040.34
2017-03-27T10:28:24.924Z,1040.31
2017-03-27T10:29:24.920Z,1040.33
2017-03-27T10:30:24.916Z,1040.23
2017-03-27T10:31:24.911Z,1040.29
2017-03-27T10:32:24.906Z,1040.33
2017-03-27T10:33:24.903Z,1040.29
2017-03-27T10:34:24.898Z,1040.25
2017-03-27T10:35:24.893Z,1040.17
2017-03-27T10:36:24.889Z,1040.16
2017-03-27T10:37:24.885Z,1040.11
2017-03-27T10:38:24.882Z,1040.11
2017-03-27T10:39:24.882Z,1040.09
2017-03-27T10:40:24.877Z,1040.11
2017-03-27T10:41:24.869Z,1040.1
2017-03-27T10:42:24.864Z,1040.09
2017-03-27T10:43:24.860Z,1040.04
2017-03-27T10:44:24.855Z,1040.08
2017-03-27T10:45:24.852Z,1040.03
2017-03-27T10:46:24.846Z,1040.06
2017-03-27T10:47:24.842Z,1040.02
2017-03-27T10:48:24.839Z,1040.02
2017-03-27T10:49:24.835Z,1040
2017-03-27T10:50:24.829Z,1040.01
2017-03-27T10:51:24.826Z,1039.97
2017-03-27T10:52:24.821Z,1039.94
2017-03-27T10:53:24.817Z,1039.93
2017-03-27T10:54:24.813Z,1039.91
2017-03-27T10:55:24.809Z,1039.78
2017-03-27T10:56:24.805Z,1039.86
2017-03-27T10:57:24.800Z,1039.85
2017-03-27T10:58:24.797Z,1039.82
2017-03-27T10:59:24.793Z,1039.84
2017-03-27T11:00:24.788Z,1039.84
2017-03-27T11:01:24.784Z,1039.81
2017-03-27T11:02:24.780Z,1039.86
2017-03-27T11:03:24.776Z,1039.82
2017-03-27T11:04:24.771Z,1039.8
2017-03-27T11:05:24.767Z,1039.78
2017-03-27T11:06:24.763Z,1039.78
2017-03-27T11:07:24.759Z,1039.78
2017-03-27T11:08:24.754Z,1039.69
2017-03-27T11:09:24.750Z,1039.66
2017-03-27T11:10:24.746Z,1039.68
2017-03-27T11:11:24.742Z,1039.68
2017-03-27T11:12:24.737Z,1039.67
2017-03-27T11:13:24.734Z,1039.71
2017-03-27T11:14:24.731Z,1039.7
2017-03-27T11:15:24.723Z,1039.71
2017-03-27T11:16:24.720Z,1039.69
2017-03-27T11:17:24.717Z,1039.7
2017-03-27T11:18:24.713Z,1039.65
2017-03-27T11:19:24.714Z,1039.67
2017-03-27T11:20:24.705Z,1039.6
2017-03-27T11:21:24.700Z,1039.57
2017-03-27T11:22:24.696Z,1039.56
2017-03-27T11:23:24.691Z,1039.57
2017-03-27T11:24:24.688Z,1039.5
2017-03-27T11:25:24.683Z,1039.54
2017-03-27T11:26:24.679Z,1039.52
2017-03-27T11:27:24.675Z,1039.52
2017-03-27T11:28:24.671Z,1039.51
2017-03-27T11:29:24.667Z,1039.49
2017-03-27T11:30:24.662Z,1039.5
2017-03-27T11:31:24.658Z,1039.5
2017-03-27T11:32:24.655Z,1039.44
2017-03-27T11:33:24.650Z,1039.42
2017-03-27T11:34:24.645Z,1039.41
2017-03-27T11:35:24.641Z,1039.39
2017-03-27T11:36:24.638Z,1039.39
2017-03-27T11:37:24.633Z,1039.38
2017-03-27T11:38:24.630Z,1039.39
2017-03-27T11:39:24.626Z,1039.4
2017-03-27T11:40:24.621Z,1039.38
2017-03-27T11:41:24.616Z,1039.4
2017-03-27T11:42:24.613Z,1039.39
2017-03-27T11:43:24.609Z,1039.36
2017-03-27T11:44:24.607Z,1039.34
2017-03-27T11:45:24.604Z,1039.32
2017-03-27T11:46:24.598Z,1039.29
2017-03-27T11:47:24.591Z,1039.28
2017-03-27T11:48:24.586Z,1039.2
2017-03-27T11:49:24.583Z,1039.19
2017-03-27T11:50:24.579Z,1039.15
2017-03-27T11:51:24.575Z,1039.14
2017-03-27T11:52:24.570Z,1039.09
2017-03-27T11:53:24.567Z,1039.04
2017-03-27T11:54:24.566Z,1038.98
2017-03-27T11:55:24.567Z,1038.99
2017-03-27T11:56:24.555Z,1039.07
2017-03-27T11:57:24.550Z,1039.04
2017-03-27T11:58:24.553Z,1039
2017-03-27T11:59:24.549Z,1038.97
2017-03-27T12:00:24.544Z,1039.02
2017-03-27T12:01:24.542Z,1038.91
2017-03-27T12:02:24.531Z,1038.92
2017-03-27T12:03:24.536Z,1038.92
2017-03-27T12:04:24.527Z,1038.91
2017-03-27T12:05:24.519Z,1038.91
2017-03-27T12:06:24.514Z,1038.91
2017-03-27T12:07:24.510Z,1038.85
2017-03-27T12:08:24.507Z,1038.8